Ergebnisliste vom: 22.05.2015 - Nachtpaarlauf Meissen2015 - Paarwertung

weitere Ergebnisse >>

Pl-ges. Pl.Kl. Stnr. Wertung WB 1. Lšufer 2. Lšufer Verein Ru WK-Zeit 1,1 Runde1 Runde2 Runde3 Runde4 Runde5 Runde6 Runde7 Runde8 Runde9 Runde10 Runde11 Runde12 Runde13 Runde14 Runde15 Runde16
1 1 217 mLP 1 Peter Lehmann John Heiland Coswig/SV Elbland Coswig Meißen 16 00:53:27 17,6 00:03:15 00:03:13 00:03:20 00:03:16 00:03:24 00:03:18 00:03:24 00:03:20 00:03:26 00:03:23 00:03:24 00:03:20 00:03:24 00:03:17 00:03:26 00:03:17
2 2 198 mLP 1 Christoph Rodewohl Stephan Merkle Post SV Dresden 16 00:56:58 17,6 00:03:19 00:03:43 00:03:22 00:03:44 00:03:27 00:03:45 00:03:27 00:03:50 00:03:27 00:03:42 00:03:30 00:03:39 00:03:27 00:03:41 00:03:21 00:03:34
3 3 223 mLP 1 Tom Reichelt Mirko Eger Pulsschlag/EBM Team 16 00:58:13 17,6 00:03:24 00:03:31 00:03:31 00:03:38 00:03:36 00:03:39 00:03:36 00:03:41 00:03:40 00:03:43 00:03:47 00:03:39 00:03:44 00:03:41 00:03:41 00:03:42
4 4 199 mLP 1 Tino Meyer Xaver Thrun Dresden läuft 16 00:59:17 17,6 00:03:20 00:03:41 00:03:30 00:03:48 00:03:35 00:03:49 00:03:40 00:03:51 00:03:40 00:03:50 00:03:39 00:03:52 00:03:39 00:03:57 00:03:40 00:03:46
5 5 201 mLP 1 Sascha Hoff Philipp Schmidt Dresden Peak Elements 16 01:01:17 17,6 00:03:50 00:03:52 00:03:56 00:03:44 00:03:50 00:03:52 00:03:53 00:03:49 00:03:55 00:03:52 00:03:54 00:03:51 00:03:50 00:03:45 00:03:51 00:03:33
6 6 177 mLP 1 Leo Krassek Jan Peterzelt Moritzburger Triathlonverein 16 01:01:22 17,6 00:03:22 00:03:34 00:03:45 00:03:46 00:03:54 00:03:51 00:03:56 00:03:51 00:03:58 00:03:52 00:03:55 00:03:55 00:03:58 00:03:58 00:03:57 00:03:50
7 7 174 mLP 1 Martin Koch Andreas Koch Kopfjäger Sports/Triathlonverein Dresden 16 01:01:39 17,6 00:03:35 00:03:52 00:03:50 00:03:47 00:03:53 00:03:52 00:03:56 00:03:51 00:03:58 00:03:55 00:03:59 00:03:50 00:03:55 00:03:49 00:03:52 00:03:45
8 8 150 mLP 1 Andre Goldbach Timo Forstner Laufgruppe Dresden 16 01:01:48 17,6 00:03:23 00:03:55 00:03:44 00:04:03 00:03:44 00:04:00 00:03:40 00:04:06 00:03:44 00:04:09 00:03:43 00:04:10 00:03:39 00:04:08 00:03:39 00:04:01
10 9 181 mLP 1 Franco Loreck Sfeffchen Hieckel Laufgr√ľppchen Dresden 16 01:02:26 17,6 00:03:31 00:03:50 00:03:59 00:03:59 00:03:58 00:03:56 00:03:57 00:03:55 00:03:58 00:03:54 00:03:55 00:03:55 00:03:53 00:03:55 00:04:00 00:03:51
12 10 203 mLP 1 Andreas Wels Stefan Berndt Dresden läuft 16 01:02:46 17,6 00:03:54 00:03:37 00:04:08 00:03:38 00:04:15 00:03:37 00:04:17 00:03:37 00:04:23 00:03:36 00:04:21 00:03:36 00:04:25 00:03:38 00:04:15 00:03:29
13 11 221 mLP 1 Niels Göhler Andreas Otto SV Elbland Coswig Meißen 16 01:02:59 17,6 00:03:32 00:04:03 00:03:40 00:04:10 00:03:41 00:04:14 00:03:41 00:04:16 00:03:43 00:04:15 00:03:41 00:04:17 00:03:43 00:04:14 00:03:41 00:04:08
18 12 127 mLP 1 Nicolas Stich Normann Häußler SV Elbland C.-M. e.V./ RSV Großenhain 16 01:04:17 17,6 00:03:40 00:03:51 00:03:55 00:03:54 00:04:04 00:03:59 00:04:01 00:04:01 00:04:04 00:04:07 00:04:09 00:04:05 00:04:10 00:04:13 00:04:03 00:04:01
19 13 233 mLP 1 Florian Czayka Thomas Czayka Familie Czayka 16 01:04:53 17,6 00:03:48 00:04:00 00:03:52 00:04:06 00:04:01 00:04:06 00:04:02 00:04:06 00:04:08 00:04:08 00:04:11 00:04:06 00:04:14 00:04:09 00:03:51 00:04:05
21 14 228 mLP 1 Daniel Mann Carsten Neise TV Dresden 16 01:05:43 17,6 00:03:55 00:03:45 00:04:11 00:03:59 00:04:17 00:03:54 00:04:18 00:03:56 00:04:15 00:04:00 00:04:21 00:03:56 00:04:26 00:04:08 00:04:20 00:04:02
22 15 236 mLP 1 Jörg Schröder Jörg Lehmann SV Elbland Coswig Meißen 16 01:06:12 17,6 00:04:00 00:03:52 00:04:13 00:03:58 00:04:20 00:03:58 00:04:22 00:04:00 00:04:20 00:04:02 00:04:24 00:04:02 00:04:21 00:04:03 00:04:14 00:04:03
23 16 216 mLP 1 Vincent Kuge Christian Jentzsch DLRG Glash√ľtte 16 01:06:18 17,6 00:03:58 00:03:37 00:04:08 00:03:50 00:04:30 00:03:56 00:04:43 00:03:57 00:04:36 00:03:55 00:04:36 00:03:58 00:04:31 00:03:57 00:04:14 00:03:52
24 17 157 mLP 1 Erik Schliwa Sebastian Schliwa Team Tempus I 16 01:06:27 17,6 00:03:39 00:03:47 00:03:56 00:04:06 00:04:03 00:04:15 00:04:11 00:04:18 00:04:15 00:04:19 00:04:16 00:04:23 00:04:20 00:04:19 00:04:11 00:04:09
27 18 117 mLP 1 Thomas Böhme Sven Lehner Schmorkau 16 01:07:51 17,6 00:03:34 00:04:03 00:04:07 00:04:22 00:04:12 00:04:26 00:04:12 00:04:29 00:04:12 00:04:30 00:04:13 00:04:33 00:04:08 00:04:35 00:03:54 00:04:21
28 19 218 mLP 1 Rolf Friedrich Max R√ľtz Coswig 16 01:08:09 17,6 00:04:19 00:04:08 00:04:31 00:04:03 00:04:30 00:04:05 00:04:30 00:04:06 00:04:28 00:04:04 00:04:27 00:04:04 00:04:30 00:04:04 00:04:26 00:03:54
31 20 244 mLP 1 Roland Schwarzer Steve Reinke Katzengebirgsläufer/Dresden 16 01:09:27 17,6 00:03:44 00:04:37 00:03:49 00:04:42 00:03:50 00:05:05 00:03:41 00:04:58 00:03:43 00:05:11 00:03:32 00:05:01 00:03:45 00:05:08 00:03:44 00:04:57
33 21 239 mLP 1 Lukas F√∂rster Cedrik F√∂rster SG Gr√ľne Eiche/Gro√üthiemig 16 01:09:40 17,6 00:03:47 00:04:06 00:04:03 00:04:25 00:04:06 00:04:31 00:04:12 00:04:35 00:04:10 00:04:40 00:04:13 00:04:42 00:04:19 00:04:50 00:04:11 00:04:50
35 22 215 mLP 1 Bernhard-Alexander Jentsch Erik Forberger Döbeln 16 01:10:02 17,6 00:03:50 00:04:23 00:04:08 00:04:36 00:04:14 00:04:39 00:04:10 00:04:39 00:04:11 00:04:33 00:04:24 00:04:34 00:04:15 00:04:42 00:04:08 00:04:36
36 23 234 mLP 1 Denny Rost Thomas Moosdorf Luppa/Naundorf 16 01:10:20 17,6 00:04:08 00:04:20 00:04:21 00:04:22 00:04:26 00:04:19 00:04:30 00:04:23 00:04:30 00:04:26 00:04:28 00:04:27 00:04:29 00:04:24 00:04:26 00:04:21
37 24 163 mLP 1 Carsten Rösch Markus Beeg Meißen 16 01:10:40 17,6 00:04:09 00:04:17 00:04:19 00:04:22 00:04:21 00:04:26 00:04:23 00:04:21 00:04:33 00:04:26 00:04:33 00:04:29 00:04:28 00:04:27 00:04:36 00:04:30
40 25 131 mLP 1 Sebastian Hegewald Markus Reisch Elserwerdaer SV 94/Dresdner SC II 16 01:11:04 17,6 00:04:01 00:03:53 00:04:14 00:04:24 00:04:20 00:04:32 00:04:38 00:04:36 00:04:42 00:04:35 00:04:35 00:04:38 00:04:31 00:04:30 00:04:30 00:04:25
44 26 219 mLP 1 Silvio Päpscheck Rene Krause Großenhain/Linz 16 01:11:52 17,6 00:03:56 00:04:36 00:03:59 00:04:38 00:04:05 00:04:53 00:04:04 00:05:09 00:04:06 00:04:53 00:04:13 00:05:08 00:04:10 00:05:08 00:04:03 00:04:51
47 27 173 mLP 1 Edgar Partzsch Jens Partzsch Radebeul 16 01:12:15 17,6 00:03:58 00:04:30 00:04:16 00:04:33 00:04:21 00:04:41 00:04:24 00:04:45 00:04:25 00:04:48 00:04:33 00:04:46 00:04:32 00:04:46 00:04:24 00:04:33
48 28 158 mLP 1 Andre Zeunert Rene Liebscher Autoteile Weinhold Freiberg 16 01:12:20 17,6 00:04:05 00:04:52 00:04:05 00:04:58 00:04:10 00:04:54 00:04:05 00:05:02 00:04:04 00:04:59 00:04:02 00:05:01 00:04:04 00:05:12 00:03:56 00:04:51
52 29 136 mLP 1 Thomas Hartmann Steffen Richter Team RicHart Richter 16 01:13:40 17,6 00:03:59 00:05:15 00:03:56 00:05:09 00:03:58 00:05:10 00:03:53 00:05:14 00:03:59 00:05:23 00:04:03 00:05:18 00:03:59 00:05:07 00:03:58 00:05:19
54 30 116 mLP 1 Rene Hillebrand Rene Tischler Nachbar 16 01:13:47 17,6 00:04:34 00:04:29 00:04:31 00:04:37 00:04:33 00:04:37 00:04:33 00:04:40 00:04:38 00:04:44 00:04:36 00:04:44 00:04:34 00:04:51 00:04:34 00:04:32
61 31 213 mLP 1 Uwe M√ľller Dennis H√ľbler Leisnig 16 01:16:07 17,6 00:04:31 00:04:25 00:04:52 00:04:32 00:04:57 00:04:27 00:05:05 00:04:30 00:05:03 00:04:35 00:05:10 00:04:33 00:05:06 00:04:38 00:05:06 00:04:37
65 32 105 mLP 1 Jörg Trapp Dennis Hentschel Laufgruppe Wacker Chemie 16 01:16:49 17,6 00:04:33 00:05:00 00:04:29 00:05:07 00:04:35 00:05:15 00:04:24 00:05:19 00:04:31 00:05:05 00:04:25 00:05:18 00:04:22 00:05:10 00:04:26 00:04:50
66 33 179 mLP 1 Thomas Goldbach Frank Falkenthal FV Gröditz 1911 16 01:17:14 17,6 00:04:39 00:04:36 00:04:41 00:04:43 00:04:57 00:04:41 00:05:01 00:04:45 00:05:07 00:04:47 00:05:07 00:04:51 00:05:05 00:04:48 00:04:43 00:04:43
73 34 205 mLP 1 Alexander Schliwa Robert Markardt Team Tempus II 16 01:17:44 17,6 00:04:32 00:04:32 00:04:46 00:04:42 00:04:55 00:04:51 00:04:58 00:04:57 00:04:58 00:05:04 00:05:09 00:05:02 00:04:47 00:05:11 00:04:45 00:04:35
77 35 207 mLP 1 Thomas Mutzke Markus Schröter Weißig/SV Lampertswalde 16 01:19:21 17,6 00:04:09 00:05:31 00:04:03 00:05:46 00:04:03 00:05:52 00:04:08 00:05:44 00:04:10 00:05:54 00:04:06 00:05:54 00:04:14 00:05:52 00:04:12 00:05:43
88 36 118 mLP 1 Jörg Bochmann Andreas Pelz Lionsclub Tharandt 16 01:21:30 17,6 00:04:46 00:04:38 00:04:58 00:04:58 00:05:05 00:05:07 00:05:10 00:05:08 00:05:09 00:05:19 00:05:09 00:05:16 00:05:09 00:05:14 00:05:13 00:05:11
89 37 191 mLP 1 Kevin Riemer Felix Oliver Schlegel Triebischtaler OS/MSV 08 16 01:21:44 17,6 00:04:14 00:04:10 00:04:37 00:04:52 00:04:54 00:04:52 00:05:18 00:04:59 00:05:47 00:04:57 00:04:58 00:05:44 00:05:20 00:05:46 00:05:29 00:05:47
90 38 185 mLP 1 Robert Fritsche Matthias Hofmann TSC 1990 Gröditz 16 01:21:56 17,6 00:05:14 00:05:00 00:04:59 00:05:03 00:05:17 00:05:02 00:05:16 00:05:09 00:05:17 00:05:03 00:05:14 00:05:04 00:05:19 00:05:01 00:05:09 00:04:49
91 39 238 mLP 1 Paul Schubert Dominik Kummich Pestalozzi OS 16 01:21:57 17,6 00:04:20 00:04:27 00:05:19 00:04:31 00:05:25 00:04:53 00:05:13 00:04:51 00:05:49 00:04:48 00:05:32 00:05:01 00:05:52 00:05:19 00:05:36 00:05:01
98 40 237 mLP 1 Stefan Zeiske J√ľrgen Zeiske Wildenhain 16 01:23:13 17,6 00:04:28 00:05:01 00:04:47 00:05:17 00:05:14 00:05:16 00:04:58 00:05:27 00:04:58 00:05:33 00:04:51 00:05:38 00:05:05 00:05:52 00:05:00 00:05:48
100 41 224 mLP 1 Hannes Peschel Jens Hunger Schönfeld 16 01:23:32 17,6 00:05:02 00:04:38 00:05:13 00:04:47 00:05:16 00:04:57 00:05:22 00:04:58 00:05:35 00:05:01 00:05:49 00:05:02 00:05:58 00:04:59 00:05:57 00:04:58
106 42 135 mLP 1 Jonas Moser Max Walter Zeiradteam Weser ¬Ė SC Riesa 16 01:24:54 17,6 00:04:22 00:04:24 00:04:49 00:05:17 00:05:05 00:05:33 00:05:18 00:05:13 00:05:46 00:05:24 00:05:42 00:05:26 00:05:40 00:05:36 00:06:04 00:05:15
107 43 190 mLP 1 Joel Simmang Gero Köhler Meißen 16 01:25:01 17,6 00:04:55 00:04:38 00:04:53 00:04:56 00:05:33 00:04:59 00:05:31 00:05:09 00:05:29 00:05:10 00:05:38 00:05:29 00:05:49 00:05:37 00:05:38 00:05:37
115 44 230 mLP 1 Jonathan Währer Christoph Währer Meißen 16 01:28:23 17,6 00:04:49 00:05:36 00:05:08 00:05:32 00:05:24 00:05:32 00:05:26 00:05:36 00:05:38 00:05:43 00:05:42 00:05:41 00:05:51 00:05:32 00:05:45 00:05:28
119 45 151 mLP 1 Jens Leonhardt Tom Leonhardt Bieberstein/Halle 16 01:31:10 17,6 00:05:09 00:05:40 00:05:07 00:05:35 00:05:15 00:05:54 00:05:14 00:06:28 00:05:10 00:06:40 00:05:15 00:06:45 00:05:15 00:06:24 00:05:21 00:05:58
133 46 245 mLP 1 Joachim Oettmeier Joachim Oettmeier SG Canitz 8 00:52:05 8,8 00:05:39 00:06:12 00:06:24 00:06:31 00:06:37 00:06:44 00:06:57 00:07:01                
                                                     
9 1 152 mix 2 Mirko Querdfeld Kristin Zimmermann SPEED CROSS 16 01:02:02 17,6 00:03:30 00:03:52 00:03:47 00:03:54 00:03:50 00:03:55 00:03:47 00:04:06 00:03:51 00:03:58 00:03:51 00:03:58 00:03:52 00:04:01 00:03:56 00:03:54
15 2 189 mix 2 Katrin Lindig Thomas Lindig SV Elbland Coswig ¬Ė Mei√üen 16 01:03:36 17,6 00:03:57 00:03:32 00:04:15 00:03:33 00:04:17 00:03:38 00:04:13 00:03:45 00:04:20 00:03:47 00:04:21 00:03:50 00:04:25 00:03:47 00:04:19 00:03:37
16 3 124 mix 2 Romy Stotz Christian Schröter FUN RUNNER 16 01:03:42 17,6 00:04:03 00:03:41 00:04:11 00:03:44 00:04:14 00:03:48 00:04:12 00:03:47 00:04:15 00:03:45 00:04:15 00:03:49 00:04:16 00:03:47 00:04:14 00:03:41
20 4 210 mix 2 Sven Gläser Ute Kandler Meißen 16 01:05:38 17,6 00:03:24 00:04:17 00:03:36 00:04:31 00:03:41 00:04:36 00:03:38 00:04:42 00:03:39 00:04:40 00:03:41 00:04:41 00:03:40 00:04:41 00:03:37 00:04:34
25 5 171 mix 2 Florian Richter Patricia Franke SV Motor Großenhain 16 01:07:03 17,6 00:03:52 00:04:07 00:03:58 00:04:10 00:04:17 00:04:06 00:04:22 00:04:05 00:04:26 00:04:08 00:04:27 00:04:07 00:04:29 00:04:07 00:04:20 00:04:02
30 6 186 mix 2 Nadja Dmitrowitz Peter Handschak Mizuno 16 01:08:46 17,6 00:04:13 00:03:51 00:04:30 00:03:54 00:04:40 00:03:59 00:04:45 00:03:59 00:04:46 00:04:02 00:04:43 00:04:03 00:04:44 00:04:01 00:04:38 00:03:58
32 7 111 mix 2 Daniel Ackermann Nele Förster Leipzig 16 01:09:39 17,6 00:04:10 00:04:33 00:04:05 00:04:33 00:04:03 00:04:32 00:04:06 00:04:37 00:04:11 00:04:35 00:04:08 00:04:34 00:04:07 00:04:41 00:04:05 00:04:39
39 8 183 mix 2 Enrico Werner Juliane Gittel LG Wacker Chemie AG 16 01:10:59 17,6 00:04:00 00:04:45 00:04:02 00:04:44 00:04:03 00:04:48 00:04:14 00:04:47 00:04:09 00:04:43 00:04:13 00:04:44 00:04:11 00:04:45 00:04:08 00:04:43
41 9 227 mix 2 Jens Eisold Andrea Eisold LG Friedersdorf 16 01:11:13 17,6 00:03:40 00:05:04 00:03:52 00:05:05 00:03:51 00:05:11 00:03:51 00:05:06 00:03:51 00:05:05 00:03:52 00:05:05 00:03:56 00:05:01 00:03:49 00:04:54
42 10 110 mix 2 Pia Richter Marcus Petzold Meißen/Dresden 16 01:11:21 17,6 00:04:18 00:04:00 00:04:46 00:04:02 00:04:45 00:04:09 00:04:53 00:04:11 00:04:52 00:04:10 00:04:58 00:04:12 00:04:55 00:04:14 00:04:52 00:04:04
50 11 108 mix 2 Grit Hammer Ralf Noppes SV Nordwind Naundörfel 16 01:13:26 17,6 00:04:21 00:04:22 00:04:33 00:04:25 00:04:37 00:04:32 00:04:44 00:04:35 00:04:40 00:04:43 00:04:37 00:04:42 00:04:39 00:04:34 00:04:41 00:04:41
55 12 242 mix 2 Markus Bormann Sophie Bormann LWV 05 Bali 16 01:13:48 17,6 00:04:20 00:04:51 00:04:16 00:04:51 00:04:17 00:04:50 00:04:16 00:04:55 00:04:21 00:05:00 00:04:18 00:04:56 00:04:21 00:05:00 00:04:23 00:04:53
59 13 178 mix 2 Paul K√ľmmel Paula Tomasini SV Motor Gro√üenhain 16 01:15:27 17,6 00:04:44 00:04:15 00:04:41 00:04:21 00:04:48 00:04:29 00:04:47 00:04:34 00:04:54 00:04:37 00:04:57 00:04:41 00:05:08 00:04:49 00:05:12 00:04:30
60 14 206 mix 2 Swen Robis Ulrike Kluttig Sachsenläufer 16 01:15:48 17,6 00:04:30 00:04:42 00:04:37 00:04:44 00:04:36 00:04:42 00:04:44 00:04:45 00:04:50 00:04:45 00:04:56 00:04:48 00:05:00 00:04:48 00:04:43 00:04:38
62 15 144 mix 2 Ina Heyer Ulrich Heyer Chemnitz 16 01:16:27 17,6 00:04:48 00:04:19 00:05:01 00:04:33 00:04:59 00:04:32 00:05:01 00:04:35 00:05:03 00:04:41 00:05:05 00:04:37 00:04:59 00:04:38 00:04:58 00:04:38
63 16 141 mix 2 Ellen Thielemann Sebastian Thielemann LG Strehla 16 01:16:40 17,6 00:04:53 00:04:10 00:04:58 00:04:16 00:05:09 00:04:28 00:05:11 00:04:31 00:05:18 00:04:32 00:05:16 00:04:33 00:05:17 00:04:31 00:05:20 00:04:17
69 17 103 mix 2 Michael Schmidt Susanne Mey Coswiger Kanuverein/BSV Chemie Radebeul 16 01:17:30 17,6 00:04:23 00:04:55 00:04:32 00:05:04 00:04:29 00:05:05 00:04:40 00:05:07 00:04:52 00:05:09 00:04:49 00:05:03 00:04:49 00:05:01 00:04:37 00:04:55
74 18 176 mix 2 Oliver Gäbisch Marit Gäbisch Team 08.08.08. 16 01:18:51 17,6 00:04:04 00:05:02 00:04:20 00:05:18 00:04:28 00:05:27 00:04:24 00:05:29 00:04:23 00:05:37 00:04:23 00:05:44 00:04:20 00:05:49 00:04:16 00:05:47
75 19 168 mix 2 Ronja Schulin Rick Wuttke Dresden/Glash√ľtte 16 01:18:55 17,6 00:05:11 00:04:36 00:05:19 00:04:30 00:05:24 00:04:23 00:05:25 00:04:22 00:05:30 00:04:34 00:05:33 00:04:36 00:05:23 00:04:33 00:05:10 00:04:26
78 20 225 mix 2 Wenke Haberstroh Hagen Thus S läuft 16 01:19:26 17,6 00:05:17 00:04:47 00:05:03 00:04:44 00:05:02 00:04:48 00:05:04 00:04:49 00:05:00 00:04:59 00:05:04 00:04:54 00:05:05 00:04:55 00:05:04 00:04:51
81 21 187 mix 2 Maria B√ľhn Marco Macion Dresden 16 01:19:59 17,6 00:05:02 00:04:33 00:05:15 00:04:29 00:05:23 00:04:34 00:05:26 00:04:30 00:05:31 00:04:38 00:05:37 00:04:41 00:05:39 00:04:35 00:05:36 00:04:30
85 22 226 mix 2 Nina Grundmann Max Grundmann Seniorenverein Moritzburg 16 01:20:55 17,6 00:05:16 00:03:35 00:05:41 00:03:59 00:05:52 00:04:12 00:06:09 00:04:00 00:06:06 00:04:06 00:06:24 00:04:05 00:06:44 00:04:08 00:06:42 00:03:56
86 23 156 mix 2 Daniel Schmidt Svea Schwäbe Real Egal Radeburg/Traktor Trogen 16 01:21:02 17,6 00:04:37 00:04:49 00:04:41 00:05:16 00:04:51 00:05:19 00:04:56 00:05:14 00:04:54 00:05:18 00:04:55 00:05:21 00:05:00 00:05:31 00:04:54 00:05:26
87 24 142 mix 2 Antje T√§uber Robert Schnurr M√ľnchen/Dresden 16 01:21:14 17,6 00:05:00 00:04:08 00:05:33 00:04:15 00:05:41 00:04:29 00:05:45 00:04:27 00:06:02 00:04:31 00:05:55 00:04:25 00:06:08 00:04:33 00:05:51 00:04:31
92 25 149 mix 2 Jana Tietze- Schilling Jörg Tietze Moritzburg 16 01:22:07 17,6 00:05:33 00:04:25 00:05:31 00:04:30 00:05:36 00:04:29 00:05:43 00:04:39 00:05:54 00:04:34 00:05:52 00:04:37 00:05:48 00:04:35 00:05:54 00:04:27
93 26 128 mix 2 Sören Bonesky Claudia Auerswald Oelsnitz/Stollberg 16 01:22:09 17,6 00:03:53 00:05:05 00:04:49 00:05:51 00:04:39 00:05:44 00:04:31 00:05:44 00:04:33 00:05:52 00:04:32 00:05:55 00:04:46 00:06:03 00:04:25 00:05:47
94 27 170 mix 2 Norman Weber Julia Pusch Großröhrsdorf/Radeburg 16 01:22:29 17,6 00:04:07 00:05:31 00:04:26 00:05:33 00:04:31 00:05:53 00:04:34 00:05:46 00:04:41 00:05:49 00:04:46 00:05:52 00:04:53 00:05:55 00:04:36 00:05:36
95 28 115 mix 2 Doreen Bigos Jan Löser Chemnitz/Mittweida 16 01:22:34 17,6 00:04:47 00:05:03 00:04:35 00:05:14 00:04:33 00:05:43 00:04:41 00:05:46 00:04:37 00:05:53 00:04:38 00:05:56 00:04:40 00:05:59 00:04:40 00:05:49
101 29 140 mix 2 Theresa Mögel Marco Franke Meißen 16 01:23:59 17,6 00:05:21 00:04:21 00:05:12 00:04:33 00:05:25 00:04:59 00:05:44 00:05:06 00:05:44 00:05:17 00:05:44 00:05:05 00:05:49 00:05:03 00:05:48 00:04:48
108 30 243 mix 2 Anne Mai Benjamin von Klass SV Elbland Coswig Meißen/Dresden 16 01:26:37 17,6 00:05:44 00:04:12 00:05:58 00:04:16 00:06:18 00:04:16 00:06:27 00:04:21 00:06:40 00:04:26 00:06:48 00:04:28 00:06:52 00:04:27 00:06:52 00:04:32
109 31 211 mix 2 Olaf Wohs Peggy Philipp-Wohs Kanu Verein Coswig/Coswig 16 01:26:38 17,6 00:04:50 00:05:15 00:04:53 00:05:37 00:04:57 00:05:43 00:05:00 00:05:48 00:05:08 00:05:47 00:05:09 00:06:02 00:05:10 00:06:16 00:05:11 00:05:52
113 32 240 mix 2 Kerstin Köhler Dr. Matthias Köhler Gröditzer Tennisclub 16 01:28:02 17,6 00:05:15 00:05:11 00:05:14 00:05:19 00:05:29 00:05:23 00:05:31 00:05:29 00:05:42 00:05:31 00:05:49 00:05:30 00:05:49 00:05:29 00:05:50 00:05:31
116 33 130 mix 2 Franziska Ennemann Thomas Ennemann Scharfenberg 16 01:28:47 17,6 00:05:07 00:05:26 00:05:30 00:05:26 00:05:32 00:05:33 00:05:34 00:05:39 00:05:32 00:05:42 00:05:39 00:05:41 00:05:37 00:05:41 00:05:36 00:05:32
121 34 175 mix 2 Frank Vollgold Daniel Börner Dani und Frank 16 01:34:19 17,6 00:05:46 00:05:39 00:05:17 00:05:38 00:05:36 00:05:51 00:05:22 00:05:52 00:05:46 00:05:50 00:05:58 00:06:01 00:06:03 00:06:02 00:05:51 00:07:47
125 35 102 mix 2 Jasmin Trinks Sebastian Trinks Freiberg/Freiberg 16 01:36:24 17,6 00:06:17 00:04:29 00:07:05 00:05:00 00:07:02 00:04:44 00:07:16 00:04:58 00:07:28 00:05:09 00:07:33 00:05:07 00:07:32 00:04:41 00:07:22 00:04:41
128 36 208 mix 2 Franziska Thiele Sandro Eisemuth Dresden/SV Lampertswalde 16 01:38:43 17,6 00:06:13 00:04:49 00:06:35 00:05:22 00:06:59 00:05:29 00:07:23 00:05:31 00:07:19 00:05:25 00:07:21 00:05:28 00:07:14 00:05:12 00:07:11 00:05:12
134 37 146 mix 2 Sandra J√§hne Sven J√§hne Mei√üen 6 00:36:31 6,6 00:07:08 00:04:59 00:06:25 00:05:35 00:06:44 00:05:40                    
                                                     
26 1 162 wLP 3 Katharina Ander Franziska Schneider SC DhfK Leipzig 16 01:07:09 17,6 00:03:59 00:04:19 00:04:00 00:04:18 00:04:01 00:04:20 00:04:03 00:04:24 00:04:02 00:04:22 00:04:06 00:04:24 00:04:04 00:04:27 00:04:02 00:04:18
51 2 106 wLP 3 Ines Unger Ulrike Bräuer Team Dyspnoe 16 01:13:30 17,6 00:04:19 00:04:22 00:04:33 00:04:31 00:04:41 00:04:31 00:04:41 00:04:34 00:04:42 00:04:38 00:04:42 00:04:37 00:04:45 00:04:36 00:04:46 00:04:32
57 3 147 wLP 3 Anita Heinrich Jana Clement Mädelsclub Drsd./TV Drsd. Spitzen Team 16 01:14:40 17,6 00:04:43 00:04:10 00:05:02 00:04:11 00:05:08 00:04:06 00:05:13 00:04:12 00:05:10 00:04:14 00:05:12 00:04:13 00:05:17 00:04:17 00:05:19 00:04:13
68 4 222 wLP 3 Doreen Laveatz Ulrike Raddatz DSC 1889 16 01:17:23 17,6 00:04:16 00:04:54 00:04:36 00:05:00 00:04:39 00:05:11 00:04:39 00:05:05 00:04:37 00:05:09 00:04:40 00:05:11 00:04:39 00:05:14 00:04:28 00:05:05
70 5 160 wLP 3 Lisa ¬Ė Marie Hoffmann Tessa Klengel SV Elbland Coswig ¬Ė Mei√üen/Naunhof 16 01:17:37 17,6 00:03:52 00:04:50 00:04:13 00:05:24 00:04:18 00:05:15 00:04:20 00:05:37 00:04:25 00:05:28 00:04:24 00:05:36 00:04:30 00:05:40 00:04:28 00:05:17
104 6 229 wLP 3 Sarah Eisold Jamin Eisold LG Friedersdorf 16 01:24:34 17,6 00:04:56 00:04:48 00:05:03 00:05:03 00:05:19 00:05:08 00:05:19 00:05:15 00:05:26 00:05:30 00:05:33 00:05:26 00:05:32 00:05:43 00:05:24 00:05:09
111 7 231 wLP 3 Ines Häußler Maren Häußler Großenhain/Großenhainer Rollsportverein 16 01:27:59 17,6 00:05:11 00:05:39 00:05:12 00:05:30 00:05:25 00:05:39 00:05:26 00:05:29 00:05:31 00:05:39 00:05:38 00:05:48 00:05:38 00:05:46 00:05:30 00:04:58
114 8 138 wLP 3 Anja Feder Melanie Kothe VLH Scharfenberg 16 01:28:19 17,6 00:05:15 00:05:17 00:05:31 00:05:27 00:05:35 00:05:26 00:05:35 00:05:30 00:05:44 00:05:37 00:05:36 00:05:37 00:05:41 00:05:37 00:05:37 00:05:14
117 9 148 wLP 3 Leila Hendricks Frenkel Christ. Nelson Marxen Friedewald 16 01:30:25 17,6 00:05:23 00:05:07 00:05:40 00:05:39 00:05:44 00:05:33 00:05:56 00:05:26 00:06:00 00:05:27 00:05:59 00:05:38 00:06:01 00:05:28 00:05:57 00:05:27
120 10 120 wLP 3 Aline Blaas Jessica Hiersigk SV Chemie N√ľnchritz 16 01:33:26 17,6 00:04:46 00:05:43 00:05:03 00:06:19 00:05:26 00:06:20 00:05:22 00:06:22 00:05:46 00:06:43 00:05:29 00:06:33 00:05:32 00:06:34 00:05:07 00:06:21
126 11 241 wLP 3 Sindy Härtel Kathleen Negler Meißen 16 01:36:58 17,6 00:05:19 00:06:04 00:05:43 00:06:26 00:05:48 00:06:25 00:06:01 00:06:23 00:05:53 00:06:29 00:06:02 00:06:25 00:05:56 00:06:15 00:05:51 00:05:58
129 12 112 wLP 3 Cathleen Marquardt Silke Kerl Mädelsrun DL 16 01:39:13 17,6 00:05:45 00:05:45 00:06:13 00:06:00 00:06:17 00:06:08 00:06:24 00:06:13 00:06:20 00:06:30 00:06:21 00:06:35 00:06:10 00:06:33 00:06:05 00:05:54
132 13 123 wLP 3 Anja Uhlig Doreen Sch√ľtze Mei√üen/Dresden 16 01:42:16 17,6 00:05:54 00:06:09 00:06:00 00:06:22 00:06:17 00:06:30 00:06:25 00:06:39 00:06:25 00:06:56 00:06:33 00:06:41 00:06:27 00:06:16 00:06:35 00:06:07
                                                     
11 1 153 mSen 4 Frank Wittwer Kai Böhme Dresden 16 01:02:41 17,6 00:03:31 00:03:48 00:03:51 00:03:53 00:03:52 00:03:55 00:03:57 00:04:00 00:03:59 00:04:01 00:03:58 00:04:01 00:03:54 00:04:03 00:03:56 00:04:02
14 2 132 mSen 4 Thomas Berndt Jörg Scholtz SSV Planeta Radebeul/Zeithain 16 01:03:02 17,6 00:03:33 00:03:59 00:03:52 00:03:59 00:03:50 00:04:03 00:03:52 00:04:01 00:03:53 00:04:02 00:03:56 00:04:04 00:03:56 00:04:04 00:03:55 00:04:03
17 3 166 mSen 4 Frank Balzer Lars Krause TSV Einheit Grimma 16 01:03:51 17,6 00:04:04 00:03:40 00:04:17 00:03:41 00:04:18 00:03:40 00:04:20 00:03:40 00:04:21 00:03:40 00:04:24 00:03:38 00:04:27 00:03:40 00:04:28 00:03:33
29 4 214 mSen 4 Stephan K√ľmmel Andre Giebler LG Priestewitz/LG TuS Weinb√∂hla 16 01:08:43 17,6 00:04:02 00:04:18 00:04:10 00:04:23 00:04:13 00:04:25 00:04:17 00:04:24 00:04:14 00:04:26 00:04:14 00:04:26 00:04:20 00:04:21 00:04:09 00:04:21
38 5 193 mSen 4 Rolf Baum Andreas Hemmersbach SV Elbland Coswig Meißen/VGM 16 01:10:52 17,6 00:04:15 00:04:22 00:04:22 00:04:24 00:04:30 00:04:24 00:04:27 00:04:23 00:04:29 00:04:23 00:04:34 00:04:24 00:04:36 00:04:25 00:04:32 00:04:22
43 6 197 mSen 4 Torsten Fleischer Jörg Wimdorf Coswig 16 01:11:50 17,6 00:03:55 00:04:21 00:04:03 00:04:35 00:04:10 00:04:46 00:04:11 00:04:56 00:04:08 00:04:54 00:04:15 00:04:54 00:04:20 00:05:06 00:04:11 00:05:05
53 7 194 mSen 4 Dietmar Schwitalla Hans-J√ľrgen Zwicke SC Riesa 16 01:13:41 17,6 00:04:37 00:04:31 00:04:36 00:04:31 00:04:38 00:04:29 00:04:35 00:04:35 00:04:36 00:04:41 00:04:37 00:04:39 00:04:39 00:04:40 00:04:37 00:04:40
58 8 204 mSen 4 Gerd Jakat Steffen Freitag Eestly Husky Race 16 01:15:25 17,6 00:04:36 00:04:21 00:04:51 00:04:28 00:04:54 00:04:32 00:04:56 00:04:35 00:05:00 00:04:31 00:05:01 00:04:32 00:05:02 00:04:37 00:05:05 00:04:24
67 9 235 mSen 4 Thomas Greinke Ingo M√ľtze SV Elbland Coswig Mei√üen 16 01:17:21 17,6 00:04:51 00:04:25 00:04:58 00:04:20 00:05:14 00:04:22 00:05:19 00:04:29 00:05:19 00:04:31 00:05:18 00:04:35 00:05:23 00:04:42 00:05:00 00:04:35
71 10 172 mSen 4 Stefan Benkert Jörg Schöneich TSV 92 Freiberg 16 01:17:43 17,6 00:04:33 00:04:37 00:04:49 00:04:37 00:04:49 00:04:48 00:04:52 00:04:51 00:04:54 00:05:03 00:05:01 00:04:57 00:04:57 00:04:59 00:04:53 00:05:03
72 11 200 mSen 4 Joachim Pospisil Peter Wick Laufgruppe Nossen/Weinböhla 16 01:17:44 17,6 00:04:05 00:04:50 00:04:17 00:05:10 00:04:19 00:05:24 00:04:24 00:05:30 00:04:21 00:05:29 00:04:29 00:05:35 00:04:31 00:05:33 00:04:27 00:05:20
79 12 209 mSen 4 Henrik Hattmann Ralph Jödicke Lauf-kulTour 16 01:19:34 17,6 00:05:02 00:04:37 00:04:57 00:04:42 00:05:02 00:04:53 00:05:02 00:05:04 00:05:04 00:04:54 00:05:06 00:04:56 00:05:03 00:05:15 00:05:01 00:04:56
82 13 192 mSen 4 Hartmut Schubert Wolfram Heintze Dresden/Kamenz 16 01:20:02 17,6 00:04:42 00:04:45 00:04:54 00:04:56 00:04:58 00:05:05 00:05:06 00:05:02 00:05:03 00:05:07 00:05:02 00:05:07 00:05:10 00:05:02 00:05:10 00:04:53
83 14 184 mSen 4 Dirk Körbs Bernd Hengst Laufgruppe Nossen 16 01:20:08 17,6 00:04:35 00:05:03 00:04:51 00:05:11 00:04:51 00:05:04 00:04:55 00:05:01 00:04:59 00:05:12 00:04:58 00:05:10 00:04:59 00:05:12 00:05:00 00:05:07
84 15 212 mSen 4 Wallfried Heinicke Rainer Conrad Oschatz/Thalheim 16 01:20:27 17,6 00:04:43 00:04:56 00:04:58 00:04:58 00:04:59 00:05:00 00:05:00 00:05:02 00:05:07 00:04:58 00:05:12 00:05:03 00:05:14 00:05:01 00:05:17 00:04:59
99 16 232 mSen 4 Holger Mauke Jens Kuge Schmiedewalde/Meißen 16 01:23:17 17,6 00:05:12 00:04:18 00:05:42 00:04:29 00:06:00 00:04:33 00:06:00 00:04:28 00:06:11 00:04:34 00:06:11 00:04:33 00:06:02 00:04:35 00:05:57 00:04:32
103 17 195 mSen 4 Hans-Georg Schmidt Jörg Putzger TSV Dresden 16 01:24:22 17,6 00:05:14 00:05:13 00:05:11 00:05:19 00:05:14 00:05:16 00:05:14 00:05:24 00:05:14 00:05:19 00:05:13 00:05:21 00:05:15 00:05:22 00:05:20 00:05:13
105 18 143 mSen 4 Harald Hoßbach Dietmar Senf Wermsdorf/Großbothen 16 01:24:47 17,6 00:05:18 00:05:13 00:05:13 00:05:12 00:05:17 00:05:17 00:05:15 00:05:17 00:05:16 00:05:18 00:05:16 00:05:23 00:05:20 00:05:27 00:05:20 00:05:25
112 19 159 mSen 4 Hagen Hoffmann Frank Klengel Naunhof 16 01:28:00 17,6 00:04:45 00:05:15 00:05:01 00:05:33 00:05:10 00:05:45 00:05:10 00:05:52 00:05:13 00:06:01 00:05:18 00:06:07 00:05:24 00:06:11 00:05:17 00:05:58
127 20 129 mSen 4 Ulrich Fricke Bernhard Dr. Malsch Weinböhla/Meißen 16 01:38:01 17,6 00:05:24 00:06:13 00:05:23 00:06:34 00:05:24 00:06:39 00:05:28 00:06:46 00:05:26 00:07:00 00:05:25 00:07:11 00:05:26 00:07:10 00:05:21 00:07:11
135 21 161 mSen 4 Frank Alexander Mario Junghanns D√∂belner SV Vorw√§rts 1 00:06:05 1,1 00:06:05                              
                                                     
34 1 139 wSen 5 Elfi Rose B√§rbel Hempel M√ľgeln/Ebersbach 16 01:09:43 17,6 00:04:12 00:04:19 00:04:19 00:04:23 00:04:22 00:04:22 00:04:21 00:04:22 00:04:23 00:04:21 00:04:22 00:04:22 00:04:27 00:04:24 00:04:20 00:04:24
45 2 104 wSen 5 Grit Stich Birgit Lehmann Radebeul/BSV Chemie Radebeul 16 01:12:06 17,6 00:04:10 00:04:32 00:04:21 00:04:30 00:04:24 00:04:33 00:04:29 00:04:33 00:04:28 00:04:37 00:04:29 00:04:40 00:04:30 00:04:41 00:04:28 00:04:41
64 3 114 wSen 5 Conni Wegner Drillicht Anke Trautmann Mei√üen/K√∂nigsbr√ľck 16 01:16:44 17,6 00:04:29 00:04:40 00:04:44 00:04:43 00:04:51 00:04:49 00:04:46 00:04:51 00:04:47 00:04:52 00:04:47 00:05:00 00:04:47 00:04:58 00:04:49 00:04:51
102 4 154 wSen 5 Katrin Hofmann Simone Putzger TSV Dresden 16 01:24:03 17,6 00:04:58 00:05:17 00:05:05 00:05:15 00:05:08 00:05:15 00:05:12 00:05:22 00:05:12 00:05:24 00:05:10 00:05:25 00:05:12 00:05:25 00:05:17 00:05:26
118 5 133 wSen 5 Edelgard Palfi Petra Hesse Citylaufverein Dresden/LSV Pirna 16 01:30:28 17,6 00:05:13 00:05:46 00:05:17 00:05:50 00:05:22 00:05:53 00:05:23 00:05:49 00:05:26 00:05:53 00:05:28 00:05:56 00:05:34 00:06:01 00:05:36 00:06:01
131 6 220 wSen 5 Annett Noack Rita Weiß Saunatruppe Meißen 16 01:41:13 17,6 00:05:30 00:06:15 00:05:53 00:06:18 00:06:03 00:06:27 00:06:11 00:06:32 00:06:08 00:06:35 00:06:15 00:06:40 00:06:35 00:06:43 00:06:19 00:06:49
                                                     
46 1 119 mixSen 6 Silke Dewitz Heiko Dewitz ESV Lok Döbeln 16 01:12:10 17,6 00:04:31 00:04:19 00:04:35 00:04:19 00:04:43 00:04:20 00:04:40 00:04:25 00:04:40 00:04:21 00:04:46 00:04:22 00:04:43 00:04:25 00:04:45 00:04:16
49 2 196 mixSen 6 Heike Primus Karel B√ľdi SC Riesa/LRG Adonis Riesa 16 01:12:28 17,6 00:04:42 00:04:02 00:04:54 00:04:06 00:04:58 00:04:11 00:04:54 00:04:11 00:04:55 00:04:11 00:04:54 00:04:11 00:04:56 00:04:15 00:04:53 00:04:15
56 3 188 mixSen 6 Detlef Knöfel Andrea Zange Meißen 16 01:14:21 17,6 00:04:13 00:04:49 00:04:22 00:04:50 00:04:27 00:04:50 00:04:31 00:04:51 00:04:29 00:04:52 00:04:28 00:04:50 00:04:30 00:04:50 00:04:30 00:04:59
76 4 202 mixSen 6 Silke Clauss Reiner Mehlhorn Moritzburger Triathlonverein 16 01:19:10 17,6 00:04:59 00:04:46 00:05:01 00:04:42 00:05:06 00:04:48 00:05:09 00:04:43 00:05:09 00:04:47 00:05:08 00:04:48 00:05:13 00:04:50 00:05:16 00:04:45
80 5 180 mixSen 6 Heiko Becker Ines Hammer Strehla 16 01:19:51 17,6 00:04:07 00:05:21 00:04:18 00:05:35 00:04:17 00:05:45 00:04:19 00:05:41 00:04:23 00:05:48 00:04:25 00:05:43 00:04:22 00:05:41 00:04:26 00:05:40
96 6 165 mixSen 6 Simone Luft Michael Luft Königswartha 16 01:22:47 17,6 00:05:22 00:04:43 00:05:26 00:04:34 00:05:34 00:04:44 00:05:38 00:04:46 00:05:41 00:04:47 00:05:40 00:04:52 00:05:45 00:04:50 00:05:38 00:04:47
97 7 101 mixSen 6 Elke Tscholitsch Frank Tscholitsch Zschortau 16 01:23:00 17,6 00:05:19 00:04:40 00:05:22 00:04:37 00:05:32 00:04:43 00:05:36 00:04:49 00:05:38 00:05:01 00:05:37 00:04:56 00:05:43 00:05:00 00:05:24 00:05:03
110 8 126 mixSen 6 Anett Lehmann Michael Walther Nössige/Dresden 16 01:27:50 17,6 00:05:16 00:04:47 00:05:33 00:04:55 00:05:55 00:04:55 00:06:09 00:04:58 00:06:16 00:05:03 00:06:21 00:05:05 00:06:21 00:05:08 00:06:05 00:05:03
122 9 107 mixSen 6 Simone Förster Stefan Malcher Dresden 16 01:34:31 17,6 00:06:22 00:05:27 00:06:11 00:05:11 00:06:25 00:05:22 00:06:29 00:05:13 00:06:34 00:05:18 00:06:41 00:05:19 00:06:48 00:05:13 00:06:45 00:05:13
123 10 155 mixSen 6 Christiane Buske Wolfgang Buske Unsere Praxis läuft 16 01:35:19 17,6 00:05:47 00:05:59 00:05:43 00:05:53 00:05:55 00:05:52 00:06:02 00:05:46 00:05:57 00:05:57 00:06:04 00:06:05 00:06:16 00:06:06 00:06:03 00:05:54
124 11 169 mixSen 6 Grit Trinks Mathias Trinks Oberschöna 16 01:36:23 17,6 00:06:51 00:04:36 00:06:59 00:04:37 00:06:54 00:04:40 00:07:17 00:04:52 00:07:33 00:05:05 00:07:36 00:05:04 00:07:36 00:04:44 00:07:20 00:04:39
130 12 109 mixSen 6 Kerstin Eggeler Rene Eggeler 1. CTV 16 01:41:05 17,6 00:06:11 00:06:06 00:06:23 00:05:54 00:06:33 00:05:52 00:06:36 00:06:08 00:06:41 00:06:17 00:06:41 00:06:10 00:06:34 00:06:13 00:06:34 00:06:12
(c) 1990-2020 Blue Wonder Sport Promotion - Andreas Burow - Zeitnahme & Auswertung - www.Triathlon-Service.de